Time;durP1;ratioP1;P1;durP2;ratioP2;P2;SDS_P1;SDS_P2;PMS_P1;PMS_P2;Temp;Humidity;BMP_temperature;BMP_pressure;BME280_temperature;BME280_humidity;BME280_pressure;Samples;Min_cycle;Max_cycle;Signal;HPM_P1;HPM_P2
2023/09/21 00:00:10;;;;;;;4.57;1.10;;;22.80;93.40;;;;;;5081150;27;45098;-57
2023/09/21 00:02:37;;;;;;;1.58;1.00;;;22.80;93.40;;;;;;5076220;27;45240;-57
2023/09/21 00:05:06;;;;;;;4.60;1.05;;;22.80;93.40;;;;;;5079037;28;45561;-57
2023/09/21 00:07:36;;;;;;;1.38;1.00;;;22.80;93.40;;;;;;5078256;28;47583;-57
2023/09/21 00:10:03;;;;;;;1.40;0.82;;;22.80;93.40;;;;;;5081767;27;45133;-57
2023/09/21 00:12:31;;;;;;;0.93;0.80;;;22.80;93.40;;;;;;5081899;28;45209;-57
2023/09/21 00:14:59;;;;;;;1.25;0.90;;;22.80;93.40;;;;;;5077189;28;45244;-57
2023/09/21 00:17:27;;;;;;;1.40;1.00;;;22.80;93.30;;;;;;5075497;28;47433;-57
2023/09/21 00:19:54;;;;;;;1.95;1.00;;;22.70;93.30;;;;;;5075576;28;45259;-57
2023/09/21 00:22:21;;;;;;;1.05;0.95;;;22.70;93.30;;;;;;5076858;27;45208;-57
2023/09/21 00:24:48;;;;;;;1.63;1.10;;;22.70;93.30;;;;;;5067608;28;45090;-57
2023/09/21 00:27:15;;;;;;;2.08;1.00;;;22.70;93.30;;;;;;5072946;28;45235;-57
2023/09/21 00:29:42;;;;;;;1.63;1.02;;;22.70;93.30;;;;;;5074915;27;45197;-57
2023/09/21 00:32:09;;;;;;;1.42;0.98;;;22.70;93.20;;;;;;5074603;28;45051;-57
2023/09/21 00:34:37;;;;;;;1.40;0.90;;;22.70;93.20;;;;;;5072505;28;45347;-57
2023/09/21 00:37:04;;;;;;;1.73;1.10;;;22.70;93.20;;;;;;5082463;28;46035;-57
2023/09/21 00:39:32;;;;;;;1.23;0.82;;;22.70;93.20;;;;;;5080629;28;45330;-57
2023/09/21 00:41:58;;;;;;;1.52;0.90;;;22.80;93.20;;;;;;5068636;28;45430;-57
2023/09/21 00:44:26;;;;;;;1.15;0.85;;;22.70;93.10;;;;;;5074299;28;45411;-57
2023/09/21 00:46:53;;;;;;;1.10;0.90;;;22.80;93.10;;;;;;5074194;28;45304;-57
2023/09/21 00:49:20;;;;;;;1.17;0.90;;;22.70;93.10;;;;;;5069811;28;45269;-57
2023/09/21 00:51:50;;;;;;;1.10;0.80;;;22.70;93.00;;;;;;5076833;28;44639;-57
2023/09/21 00:54:17;;;;;;;2.42;0.95;;;22.70;93.00;;;;;;5080801;28;45332;-57
2023/09/21 00:56:44;;;;;;;1.60;1.00;;;22.70;93.00;;;;;;5073888;28;46372;-57
2023/09/21 00:59:14;;;;;;;1.38;1.08;;;22.70;93.00;;;;;;5082468;28;45363;-57
2023/09/21 01:01:43;;;;;;;1.52;1.00;;;22.70;93.00;;;;;;5076053;28;45181;-57
2023/09/21 01:04:12;;;;;;;1.10;0.82;;;22.70;93.00;;;;;;5080260;27;45192;-57
2023/09/21 01:06:41;;;;;;;1.30;0.90;;;22.70;93.00;;;;;;5084221;28;48686;-57
2023/09/21 01:09:13;;;;;;;1.05;0.80;;;22.70;93.00;;;;;;5078979;27;45795;-57
2023/09/21 01:11:40;;;;;;;1.65;1.02;;;22.70;93.00;;;;;;5086139;27;44728;-57
2023/09/21 01:14:07;;;;;;;1.45;1.00;;;22.70;93.00;;;;;;5076759;28;44745;-57
2023/09/21 01:16:34;;;;;;;1.42;1.10;;;22.70;92.90;;;;;;5085871;28;47299;-57
2023/09/21 01:19:01;;;;;;;0.85;0.80;;;22.70;92.90;;;;;;5076183;27;45161;-57
2023/09/21 01:21:36;;;;;;;1.40;0.93;;;22.70;92.80;;;;;;5082052;28;44641;-57
2023/09/21 01:24:05;;;;;;;1.25;0.90;;;22.70;92.80;;;;;;5075449;28;45048;-57
2023/09/21 01:26:32;;;;;;;1.40;0.80;;;22.70;92.80;;;;;;5068636;28;45199;-57
2023/09/21 01:28:59;;;;;;;1.95;1.02;;;22.70;92.80;;;;;;5083244;28;45113;-57
2023/09/21 01:31:26;;;;;;;1.88;1.00;;;22.70;92.70;;;;;;5080965;28;45322;-57
2023/09/21 01:33:53;;;;;;;1.15;0.88;;;22.70;92.70;;;;;;5081594;28;45240;-57
2023/09/21 01:36:21;;;;;;;1.10;0.90;;;22.70;92.70;;;;;;5081840;28;46060;-57
2023/09/21 01:38:48;;;;;;;3.08;0.95;;;22.70;92.70;;;;;;5083969;28;45250;-57
2023/09/21 01:41:18;;;;;;;1.63;1.00;;;22.70;92.70;;;;;;5078612;27;45286;-57
2023/09/21 01:43:45;;;;;;;0.77;0.65;;;22.70;92.70;;;;;;5075238;28;45465;-57
2023/09/21 01:46:12;;;;;;;1.52;1.00;;;22.70;92.70;;;;;;5069364;28;46214;-57
2023/09/21 01:48:39;;;;;;;0.77;0.75;;;22.70;92.70;;;;;;5079552;28;45145;-57
2023/09/21 01:51:06;;;;;;;1.13;0.88;;;22.70;92.70;;;;;;5076800;27;44795;-57
2023/09/21 01:53:33;;;;;;;1.25;0.90;;;22.70;92.70;;;;;;5077350;28;45046;-57
2023/09/21 01:56:00;;;;;;;1.17;0.90;;;22.70;92.70;;;;;;5083087;27;45071;-57
2023/09/21 01:58:28;;;;;;;1.60;0.82;;;22.70;92.60;;;;;;5084240;28;45347;-57
2023/09/21 02:00:55;;;;;;;1.02;0.90;;;22.70;92.70;;;;;;5083710;28;45139;-57
2023/09/21 02:03:28;;;;;;;1.65;0.93;;;22.70;92.60;;;;;;5072593;27;45162;-57
2023/09/21 02:05:57;;;;;;;2.55;0.77;;;22.70;92.60;;;;;;5080754;28;46213;-57
2023/09/21 02:08:24;;;;;;;1.30;1.00;;;22.70;92.60;;;;;;5076972;27;45219;-57
2023/09/21 02:10:51;;;;;;;1.40;0.90;;;22.70;92.60;;;;;;5083508;28;45091;-57
2023/09/21 02:13:18;;;;;;;1.25;0.90;;;22.70;92.60;;;;;;5076334;28;45103;-57
2023/09/21 02:15:47;;;;;;;2.22;1.20;;;22.70;92.60;;;;;;5070186;28;47693;-57
2023/09/21 02:18:14;;;;;;;1.25;1.05;;;22.70;92.60;;;;;;5075155;28;45078;-57
2023/09/21 02:20:44;;;;;;;0.60;0.60;;;22.70;92.50;;;;;;5082370;28;44630;-57
2023/09/21 02:23:12;;;;;;;0.95;0.75;;;22.70;92.50;;;;;;5079062;28;45239;-57
2023/09/21 02:25:40;;;;;;;2.03;1.33;;;22.70;92.50;;;;;;5077268;28;46382;-57
2023/09/21 02:28:08;;;;;;;0.85;0.70;;;22.70;92.50;;;;;;5074063;28;45067;-57
2023/09/21 02:30:36;;;;;;;1.27;1.00;;;22.70;92.50;;;;;;5075485;28;45114;-57
2023/09/21 02:33:05;;;;;;;0.85;0.73;;;22.70;92.50;;;;;;5076348;28;45071;-57
2023/09/21 02:35:35;;;;;;;1.02;0.90;;;22.70;92.40;;;;;;5074962;28;45147;-57
2023/09/21 02:38:05;;;;;;;1.50;0.98;;;22.70;92.40;;;;;;5080454;28;45196;-57
2023/09/21 02:40:31;;;;;;;1.42;0.90;;;22.70;92.40;;;;;;5070033;28;45120;-57
2023/09/21 02:42:58;;;;;;;2.17;1.17;;;22.70;92.40;;;;;;5073095;28;45408;-57
2023/09/21 02:45:27;;;;;;;1.08;0.65;;;22.70;92.40;;;;;;5080349;28;45206;-57
2023/09/21 02:47:55;;;;;;;1.23;1.00;;;22.70;92.40;;;;;;5070303;28;45153;-57
2023/09/21 02:50:25;;;;;;;1.98;0.98;;;22.70;92.40;;;;;;5077413;27;45236;-57
2023/09/21 02:52:55;;;;;;;1.08;0.77;;;22.70;92.40;;;;;;5085005;28;45148;-57
2023/09/21 02:55:23;;;;;;;1.15;0.90;;;22.70;92.40;;;;;;5080785;28;45325;-57
2023/09/21 02:57:56;;;;;;;1.00;0.80;;;22.70;92.40;;;;;;5070345;28;45172;-57
2023/09/21 03:00:29;;;;;;;1.15;0.88;;;22.70;92.40;;;;;;5073627;28;45242;-57
2023/09/21 03:02:56;;;;;;;1.23;0.82;;;22.70;92.40;;;;;;5072126;27;44627;-57
2023/09/21 03:05:27;;;;;;;1.38;0.98;;;22.70;92.40;;;;;;5078655;28;46550;-57
2023/09/21 03:07:54;;;;;;;1.17;1.05;;;22.70;92.30;;;;;;5073039;28;45303;-57
2023/09/21 03:10:22;;;;;;;0.80;0.80;;;22.70;92.40;;;;;;5073184;28;45181;-57
2023/09/21 03:12:49;;;;;;;1.33;0.98;;;22.70;92.30;;;;;;5079827;28;45403;-57
2023/09/21 03:15:19;;;;;;;1.30;0.75;;;22.70;92.30;;;;;;5076974;28;46299;-57
2023/09/21 03:17:47;;;;;;;1.02;0.75;;;22.70;92.30;;;;;;5072847;28;45048;-57
2023/09/21 03:20:26;;;;;;;1.42;0.85;;;22.70;92.30;;;;;;5077403;28;45204;-57
2023/09/21 03:22:57;;;;;;;1.20;0.80;;;22.70;92.30;;;;;;5079647;28;45163;-57
2023/09/21 03:25:31;;;;;;;0.98;0.75;;;22.70;92.30;;;;;;5078853;28;46527;-57
2023/09/21 03:27:58;;;;;;;1.13;0.77;;;22.70;92.20;;;;;;5072571;28;44657;-57
2023/09/21 03:30:26;;;;;;;1.02;0.70;;;22.70;92.20;;;;;;5078908;27;45086;-57
2023/09/21 03:32:53;;;;;;;1.33;0.88;;;22.70;92.20;;;;;;5073118;28;45114;-57
2023/09/21 03:35:21;;;;;;;1.30;0.85;;;22.70;92.10;;;;;;5068845;28;47973;-57
2023/09/21 03:37:49;;;;;;;0.95;0.80;;;22.70;92.20;;;;;;5069656;28;45138;-57
2023/09/21 03:40:17;;;;;;;0.90;0.80;;;22.70;92.10;;;;;;5081181;27;44661;-57
2023/09/21 03:42:44;;;;;;;1.88;0.98;;;22.70;92.20;;;;;;5080648;28;45201;-57
2023/09/21 03:45:15;;;;;;;1.25;0.90;;;22.70;92.10;;;;;;5065905;28;46238;-57
2023/09/21 03:47:42;;;;;;;0.75;0.60;;;22.70;92.10;;;;;;5075380;28;45169;-57
2023/09/21 03:50:12;;;;;;;1.60;0.93;;;22.70;92.10;;;;;;5079186;28;45295;-57
2023/09/21 03:52:39;;;;;;;0.93;0.77;;;22.70;92.20;;;;;;5078689;28;45532;-57
2023/09/21 03:55:10;;;;;;;0.98;0.70;;;22.70;92.10;;;;;;5080987;27;46341;-57
2023/09/21 03:57:38;;;;;;;1.48;0.82;;;22.70;92.10;;;;;;5078954;28;45295;-57
2023/09/21 04:00:17;;;;;;;0.73;0.73;;;22.70;92.10;;;;;;5081304;28;45158;-57
2023/09/21 04:02:46;;;;;;;1.02;0.80;;;22.70;92.10;;;;;;5079763;27;45157;-57
2023/09/21 04:05:14;;;;;;;1.00;0.75;;;22.70;92.10;;;;;;5080256;27;46597;-57
2023/09/21 04:07:41;;;;;;;1.30;1.00;;;22.70;92.10;;;;;;5078691;27;45300;-57
2023/09/21 04:10:08;;;;;;;0.82;0.80;;;22.70;92.10;;;;;;5075666;27;45196;-57
2023/09/21 04:12:35;;;;;;;0.85;0.80;;;22.70;92.10;;;;;;5083012;28;45177;-57
2023/09/21 04:15:03;;;;;;;1.00;0.90;;;22.70;92.10;;;;;;5078393;28;46328;-57
2023/09/21 04:17:30;;;;;;;2.08;1.13;;;22.70;92.00;;;;;;5063691;28;45231;-57
2023/09/21 04:19:57;;;;;;;1.15;0.80;;;22.70;92.00;;;;;;5069135;28;45115;-57
2023/09/21 04:22:24;;;;;;;1.48;0.90;;;22.70;91.90;;;;;;5081416;28;45198;-57
2023/09/21 04:24:52;;;;;;;1.10;0.88;;;22.70;92.00;;;;;;5071739;28;46503;-57
2023/09/21 04:27:19;;;;;;;2.65;1.20;;;22.70;91.90;;;;;;5076324;28;45196;-57
2023/09/21 04:29:46;;;;;;;1.48;1.00;;;22.70;91.90;;;;;;5076256;27;45059;-57
2023/09/21 04:32:14;;;;;;;1.42;1.00;;;22.70;91.90;;;;;;5082914;27;45242;-57
2023/09/21 04:34:41;;;;;;;4.43;1.25;;;22.70;91.90;;;;;;5074372;28;46253;-56
2023/09/21 04:37:08;;;;;;;1.42;1.08;;;22.70;91.90;;;;;;5080272;28;45245;-57
2023/09/21 04:39:35;;;;;;;1.45;1.00;;;22.70;91.80;;;;;;5075702;27;45324;-57
2023/09/21 04:42:03;;;;;;;1.15;0.93;;;22.70;91.80;;;;;;5087529;27;45063;-57
2023/09/21 04:44:32;;;;;;;1.83;0.88;;;22.70;91.60;;;;;;5080182;28;47398;-56
2023/09/21 04:47:02;;;;;;;1.17;0.80;;;22.70;91.60;;;;;;5072747;28;45126;-57
2023/09/21 04:49:30;;;;;;;3.08;1.20;;;22.70;91.60;;;;;;5072605;28;45150;-57
2023/09/21 04:51:57;;;;;;;1.98;1.10;;;22.70;91.60;;;;;;5067892;28;45240;-57
2023/09/21 04:54:24;;;;;;;2.08;1.08;;;22.70;91.50;;;;;;5074559;28;46287;-57
2023/09/21 04:56:51;;;;;;;2.00;1.02;;;22.70;91.60;;;;;;5075117;27;45148;-57
2023/09/21 04:59:20;;;;;;;1.45;0.90;;;22.70;91.50;;;;;;5076251;27;45224;-57
2023/09/21 05:01:47;;;;;;;1.27;1.10;;;22.70;91.40;;;;;;5077320;28;45199;-56
2023/09/21 05:04:14;;;;;;;1.40;0.90;;;22.70;91.40;;;;;;5083831;27;45182;-56
2023/09/21 05:06:42;;;;;;;2.58;1.02;;;22.70;91.40;;;;;;5082421;28;45192;-57
2023/09/21 05:09:10;;;;;;;2.28;0.88;;;22.70;91.30;;;;;;5074966;28;45168;-57
2023/09/21 05:11:38;;;;;;;2.40;1.30;;;22.70;91.30;;;;;;5073513;28;45392;-57
2023/09/21 05:14:06;;;;;;;2.13;1.05;;;22.70;91.30;;;;;;5082623;28;47241;-57
2023/09/21 05:16:33;;;;;;;2.30;1.27;;;22.70;91.30;;;;;;5081405;28;45396;-57
2023/09/21 05:18:59;;;;;;;1.33;1.00;;;22.70;91.30;;;;;;5077182;28;45102;-57
2023/09/21 05:21:26;;;;;;;1.40;1.00;;;22.70;91.30;;;;;;5078743;28;45086;-57
2023/09/21 05:23:54;;;;;;;1.73;0.90;;;22.70;91.30;;;;;;5075723;28;45208;-57
2023/09/21 05:26:21;;;;;;;3.08;1.23;;;22.70;91.40;;;;;;5041975;28;1105857;-57
2023/09/21 05:28:49;;;;;;;2.85;1.20;;;22.70;91.30;;;;;;5079946;28;44654;-57
2023/09/21 05:31:15;;;;;;;1.88;1.10;;;22.70;91.30;;;;;;5083727;27;45089;-57
2023/09/21 05:33:42;;;;;;;2.53;1.27;;;22.70;91.30;;;;;;5085343;28;47040;-57
2023/09/21 05:36:09;;;;;;;1.58;1.13;;;22.70;91.30;;;;;;5085989;27;45267;-57
2023/09/21 05:38:37;;;;;;;1.20;0.98;;;22.70;91.30;;;;;;5083809;28;45161;-58
2023/09/21 05:41:06;;;;;;;2.15;1.20;;;22.70;91.30;;;;;;5070851;28;45275;-57
2023/09/21 05:43:33;;;;;;;1.50;1.20;;;22.70;91.40;;;;;;5073353;28;45251;-56
2023/09/21 05:46:00;;;;;;;1.52;1.13;;;22.70;91.40;;;;;;5083579;28;45176;-57
2023/09/21 05:48:26;;;;;;;1.83;1.10;;;22.70;91.40;;;;;;5082244;28;45145;-57
2023/09/21 05:50:53;;;;;;;4.15;1.50;;;22.70;91.30;;;;;;5079584;28;45308;-57
2023/09/21 05:53:22;;;;;;;1.33;1.20;;;22.70;91.30;;;;;;5073684;28;45465;-57
2023/09/21 05:55:49;;;;;;;1.63;0.95;;;22.70;91.30;;;;;;5070207;28;45228;-57
2023/09/21 05:58:17;;;;;;;1.65;1.00;;;22.70;91.30;;;;;;5075573;28;45130;-57
2023/09/21 06:00:44;;;;;;;1.92;1.27;;;22.70;91.30;;;;;;5084377;28;45079;-57
2023/09/21 06:03:11;;;;;;;3.63;1.27;;;22.70;91.30;;;;;;5074237;27;45130;-57
2023/09/21 06:05:37;;;;;;;2.47;1.10;;;22.70;91.30;;;;;;5072402;28;45132;-57
2023/09/21 06:08:05;;;;;;;1.85;0.90;;;22.70;91.40;;;;;;5086134;28;45161;-57
2023/09/21 06:10:32;;;;;;;3.63;1.20;;;22.70;91.40;;;;;;5082236;28;45257;-57
2023/09/21 06:12:58;;;;;;;1.88;1.13;;;22.70;91.50;;;;;;5077065;28;45129;-57
2023/09/21 06:15:27;;;;;;;3.22;1.20;;;22.70;91.50;;;;;;5073517;28;45613;-57
2023/09/21 06:17:54;;;;;;;1.88;1.00;;;22.70;91.50;;;;;;5084916;28;45452;-57
2023/09/21 06:20:21;;;;;;;1.13;0.90;;;22.70;91.50;;;;;;5077056;28;44836;-57
2023/09/21 06:22:47;;;;;;;1.65;1.10;;;22.70;91.60;;;;;;5078199;28;47268;-57
2023/09/21 06:25:14;;;;;;;2.33;1.27;;;22.70;91.60;;;;;;5073172;28;45102;-58
2023/09/21 06:27:41;;;;;;;0.95;0.80;;;22.70;91.60;;;;;;5078672;28;45178;-58
2023/09/21 06:30:10;;;;;;;1.85;1.05;;;22.70;91.60;;;;;;5075811;28;44839;-57
2023/09/21 06:32:39;;;;;;;2.03;1.20;;;22.70;91.60;;;;;;5080809;28;46501;-57
2023/09/21 06:35:07;;;;;;;1.60;1.10;;;22.80;91.60;;;;;;5076959;27;45100;-57
2023/09/21 06:37:34;;;;;;;3.20;0.88;;;22.80;91.60;;;;;;5077516;28;45107;-57
2023/09/21 06:40:01;;;;;;;2.20;0.90;;;22.70;91.60;;;;;;5082982;28;45319;-57
2023/09/21 06:42:28;;;;;;;2.28;1.05;;;22.70;91.60;;;;;;5072101;27;45449;-57
2023/09/21 06:44:55;;;;;;;1.10;0.85;;;22.80;91.70;;;;;;5077727;28;45211;-57
2023/09/21 06:47:22;;;;;;;2.88;1.17;;;22.70;91.60;;;;;;5083117;28;45200;-57
2023/09/21 06:49:53;;;;;;;1.90;1.10;;;22.70;91.60;;;;;;5071126;28;45108;-57
2023/09/21 06:52:21;;;;;;;1.75;0.98;;;22.70;91.60;;;;;;5078678;28;48021;-57
2023/09/21 06:54:48;;;;;;;2.95;1.35;;;22.80;91.70;;;;;;5077970;28;45118;-57
2023/09/21 06:57:15;;;;;;;1.30;0.90;;;22.80;91.70;;;;;;5075670;28;45063;-57
2023/09/21 06:59:43;;;;;;;1.17;1.08;;;22.80;91.70;;;;;;5081854;27;45105;-57
2023/09/21 07:02:09;;;;;;;1.48;0.80;;;22.80;91.70;;;;;;5084651;27;47929;-57
2023/09/21 07:04:37;;;;;;;1.13;0.88;;;22.80;91.80;;;;;;5079672;27;45905;-57
2023/09/21 07:07:06;;;;;;;1.02;0.60;;;22.80;91.80;;;;;;5071260;28;45146;-57
2023/09/21 07:09:34;;;;;;;3.33;0.98;;;22.80;91.80;;;;;;5065790;28;45087;-57
2023/09/21 07:12:02;;;;;;;2.05;1.00;;;22.80;91.80;;;;;;5073007;28;45423;-57
2023/09/21 07:14:32;;;;;;;2.33;1.00;;;22.80;91.80;;;;;;5070813;28;45110;-57
2023/09/21 07:16:59;;;;;;;1.23;0.90;;;22.80;91.80;;;;;;5078376;28;45118;-57
2023/09/21 07:19:26;;;;;;;1.83;1.10;;;22.80;91.80;;;;;;5064732;28;44810;-57
2023/09/21 07:21:53;;;;;;;1.95;1.10;;;22.80;91.80;;;;;;5084531;27;46984;-57
2023/09/21 07:24:21;;;;;;;1.45;0.90;;;22.80;91.90;;;;;;5079254;28;45118;-57
2023/09/21 07:26:49;;;;;;;1.27;0.80;;;22.80;91.90;;;;;;5077502;28;45354;-57
2023/09/21 07:29:17;;;;;;;1.83;0.98;;;22.80;91.90;;;;;;5072697;28;45152;-57
2023/09/21 07:31:44;;;;;;;1.52;1.08;;;22.80;91.90;;;;;;5069909;28;45247;-57
2023/09/21 07:34:11;;;;;;;2.83;1.13;;;22.80;91.90;;;;;;5082559;28;45023;-57
2023/09/21 07:36:38;;;;;;;1.08;0.90;;;22.80;91.90;;;;;;5073050;28;45035;-57
2023/09/21 07:39:09;;;;;;;1.02;0.85;;;22.80;91.90;;;;;;5082203;27;45157;-57
2023/09/21 07:41:39;;;;;;;1.60;1.05;;;22.80;91.90;;;;;;5076160;28;45513;-57
2023/09/21 07:44:08;;;;;;;1.70;1.20;;;22.80;91.90;;;;;;5082545;28;45183;-57
2023/09/21 07:46:35;;;;;;;1.75;1.13;;;22.80;91.90;;;;;;5076087;28;45193;-57
2023/09/21 07:49:04;;;;;;;1.30;1.10;;;22.80;91.90;;;;;;5067244;28;45049;-57
2023/09/21 07:51:31;;;;;;;1.30;0.95;;;22.80;91.90;;;;;;5079875;28;45190;-57
2023/09/21 07:54:00;;;;;;;2.63;1.95;;;22.80;92.00;;;;;;5084313;28;45127;-57
2023/09/21 07:56:28;;;;;;;1.30;1.10;;;22.80;92.00;;;;;;5072770;28;45256;-57
2023/09/21 07:58:56;;;;;;;2.80;1.17;;;22.80;92.00;;;;;;5084862;28;44674;-57
2023/09/21 08:01:26;;;;;;;2.22;1.02;;;22.80;92.10;;;;;;5065870;28;45366;-57
2023/09/21 08:03:54;;;;;;;1.65;0.77;;;22.80;92.10;;;;;;5079557;28;45179;-57
2023/09/21 08:06:22;;;;;;;1.67;1.00;;;22.80;92.10;;;;;;5073656;28;45160;-57
2023/09/21 08:08:51;;;;;;;2.58;0.90;;;22.80;92.20;;;;;;5064451;28;45130;-57
2023/09/21 08:11:19;;;;;;;1.60;0.98;;;22.80;92.50;;;;;;5081137;28;45438;-57
2023/09/21 08:13:46;;;;;;;2.10;0.80;;;22.80;92.20;;;;;;5080895;27;44615;-57
2023/09/21 08:16:14;;;;;;;2.63;1.27;;;22.80;92.20;;;;;;5067463;28;44609;-57
2023/09/21 08:18:41;;;;;;;1.27;0.80;;;22.80;92.20;;;;;;5079761;28;44788;-57
2023/09/21 08:21:09;;;;;;;1.45;1.00;;;22.80;92.20;;;;;;5078509;28;45306;-57
2023/09/21 08:23:36;;;;;;;1.58;1.05;;;22.80;92.20;;;;;;5082827;28;45085;-57
2023/09/21 08:26:03;;;;;;;1.20;0.80;;;22.80;92.20;;;;;;5079235;28;45168;-57
2023/09/21 08:28:30;;;;;;;1.42;0.93;;;22.80;92.30;;;;;;5073865;27;45048;-57
2023/09/21 08:30:58;;;;;;;1.67;1.00;;;22.80;92.30;;;;;;5072993;27;45189;-57
2023/09/21 08:33:26;;;;;;;1.27;0.98;;;22.80;92.30;;;;;;5067564;28;45088;-57
2023/09/21 08:35:53;;;;;;;1.48;1.00;;;22.90;92.30;;;;;;5072078;28;45060;-57
2023/09/21 08:38:20;;;;;;;3.20;1.27;;;22.90;92.40;;;;;;5063227;28;45126;-57
2023/09/21 08:40:53;;;;;;;2.63;0.93;;;22.90;92.40;;;;;;5070200;28;46320;-57
2023/09/21 08:43:24;;;;;;;1.73;1.00;;;22.90;92.40;;;;;;5073797;27;45102;-57
2023/09/21 08:45:51;;;;;;;2.03;1.00;;;22.90;92.40;;;;;;5076706;28;45098;-57
2023/09/21 08:48:20;;;;;;;1.10;1.00;;;22.90;92.50;;;;;;5083352;27;44665;-57
2023/09/21 08:50:50;;;;;;;2.83;1.20;;;22.90;92.50;;;;;;5074757;28;48602;-57
2023/09/21 08:53:20;;;;;;;1.25;0.90;;;22.90;92.90;;;;;;5083004;27;45184;-57
2023/09/21 08:55:49;;;;;;;0.90;0.80;;;22.90;92.50;;;;;;5073986;28;45220;-57
2023/09/21 08:58:23;;;;;;;1.25;0.88;;;22.90;92.50;;;;;;5074166;28;45410;-57
2023/09/21 09:00:52;;;;;;;1.90;1.00;;;22.90;92.50;;;;;;5073769;28;45441;-57
2023/09/21 09:03:21;;;;;;;1.50;1.20;;;22.90;92.50;;;;;;5083139;27;46290;-57
2023/09/21 09:05:50;;;;;;;1.55;0.90;;;22.90;92.60;;;;;;5069880;28;45066;-57
2023/09/21 09:08:16;;;;;;;1.50;0.90;;;22.90;92.60;;;;;;5064259;28;45094;-57
2023/09/21 09:10:43;;;;;;;1.58;0.93;;;22.90;92.60;;;;;;5074619;28;46384;-57
2023/09/21 09:13:10;;;;;;;1.83;1.10;;;22.90;92.60;;;;;;5062415;28;45191;-57
2023/09/21 09:15:38;;;;;;;2.05;1.17;;;22.90;92.60;;;;;;5066773;27;45157;-57
2023/09/21 09:18:06;;;;;;;1.42;1.00;;;22.90;92.60;;;;;;5070863;28;45137;-57
2023/09/21 09:20:33;;;;;;;1.48;1.00;;;22.90;92.60;;;;;;5077305;28;45440;-57
2023/09/21 09:23:03;;;;;;;1.27;1.00;;;22.90;92.70;;;;;;5078162;27;44589;-57
2023/09/21 09:25:30;;;;;;;1.67;0.93;;;22.90;92.70;;;;;;5073711;28;45161;-57
2023/09/21 09:27:59;;;;;;;1.05;0.90;;;22.80;92.70;;;;;;5066438;28;45214;-57
2023/09/21 09:30:27;;;;;;;1.65;1.00;;;22.90;92.70;;;;;;5082974;28;46484;-57
2023/09/21 09:32:55;;;;;;;1.13;0.80;;;22.90;92.70;;;;;;5069842;28;45172;-57
2023/09/21 09:35:21;;;;;;;1.23;0.88;;;22.90;92.80;;;;;;5082444;28;44843;-57
2023/09/21 09:37:48;;;;;;;1.23;0.95;;;22.90;92.70;;;;;;5087256;27;45127;-57
2023/09/21 09:40:23;;;;;;;1.10;0.98;;;22.90;92.80;;;;;;5077138;28;45339;-57
2023/09/21 09:42:51;;;;;;;2.80;1.05;;;22.80;92.80;;;;;;5082582;28;45805;-57
2023/09/21 09:45:20;;;;;;;0.82;0.82;;;22.90;92.80;;;;;;5075577;28;44623;-57
2023/09/21 09:47:54;;;;;;;2.30;0.95;;;22.90;92.80;;;;;;5072734;28;45149;-57
2023/09/21 09:50:24;;;;;;;2.15;1.05;;;22.90;92.80;;;;;;5072792;28;45253;-57
2023/09/21 09:53:00;;;;;;;1.85;1.02;;;22.90;92.90;;;;;;5085519;28;45129;-57
2023/09/21 09:55:31;;;;;;;1.50;1.10;;;22.90;92.90;;;;;;5078589;28;45312;-57
2023/09/21 09:57:59;;;;;;;1.92;1.00;;;22.90;92.90;;;;;;5076709;28;45130;-57
2023/09/21 10:00:27;;;;;;;1.48;1.00;;;22.90;92.90;;;;;;5084221;28;45483;-57
2023/09/21 10:02:55;;;;;;;1.27;0.98;;;22.90;93.00;;;;;;5079169;28;45163;-57
2023/09/21 10:05:24;;;;;;;1.77;1.00;;;22.90;93.00;;;;;;5071491;28;45180;-57
2023/09/21 10:07:52;;;;;;;3.00;1.05;;;22.90;92.90;;;;;;5077353;28;45241;-57
2023/09/21 10:10:20;;;;;;;1.27;1.00;;;22.90;93.00;;;;;;5076085;27;46538;-57
2023/09/21 10:12:52;;;;;;;1.35;1.00;;;22.90;93.00;;;;;;5078682;28;45086;-57
2023/09/21 10:15:22;;;;;;;0.75;0.70;;;22.90;93.00;;;;;;5085854;28;45174;-57
2023/09/21 10:17:50;;;;;;;1.95;0.95;;;22.90;93.00;;;;;;5084656;28;45141;-57
2023/09/21 10:20:24;;;;;;;4.63;1.33;;;22.90;93.00;;;;;;5083041;28;47396;-57
2023/09/21 10:22:53;;;;;;;1.05;0.80;;;22.90;93.10;;;;;;5084073;28;45207;-57
2023/09/21 10:25:39;;;;;;;1.63;0.80;;;22.90;93.10;;;;;;5068178;28;45227;-57
2023/09/21 10:28:37;;;;;;;1.73;1.00;;;22.90;93.10;;;;;;5083881;27;45185;-57
2023/09/21 10:31:22;;;;;;;1.08;0.90;;;22.90;93.20;;;;;;5065416;28;46368;-57
2023/09/21 10:34:05;;;;;;;0.75;0.60;;;22.90;93.20;;;;;;5076747;28;45456;-57
2023/09/21 10:36:33;;;;;;;2.58;1.15;;;22.90;93.20;;;;;;5078952;28;45222;-57
2023/09/21 10:39:25;;;;;;;1.35;0.80;;;22.90;93.20;;;;;;5078680;28;45046;-58
2023/09/21 10:41:54;;;;;;;1.80;1.02;;;22.90;93.20;;;;;;5074152;28;45175;-57
2023/09/21 10:45:07;;;;;;;2.63;0.90;;;22.90;93.20;;;;;;5082148;28;45055;-57
2023/09/21 10:47:49;;;;;;;1.63;1.05;;;22.80;93.20;;;;;;5080770;28;44876;-57
2023/09/21 10:50:18;;;;;;;1.55;1.00;;;22.80;93.00;;;;;;5082495;28;45130;-57
2023/09/21 10:52:47;;;;;;;1.45;1.05;;;22.80;93.00;;;;;;5072576;28;47033;-57
2023/09/21 10:55:17;;;;;;;2.00;1.02;;;22.80;92.90;;;;;;5071939;28;45079;-57
2023/09/21 10:57:46;;;;;;;1.60;1.10;;;22.80;92.90;;;;;;5078889;28;45205;-57
2023/09/21 11:00:21;;;;;;;2.25;1.10;;;22.80;92.80;;;;;;5066629;28;45308;-57
2023/09/21 11:02:49;;;;;;;2.95;0.98;;;22.80;92.70;;;;;;5073350;28;47246;-57
2023/09/21 11:05:17;;;;;;;1.15;0.80;;;22.80;92.70;;;;;;5072232;28;45145;-57
2023/09/21 11:07:45;;;;;;;1.38;1.02;;;22.80;92.70;;;;;;5083360;27;45218;-57
2023/09/21 11:10:14;;;;;;;1.38;0.80;;;22.80;92.80;;;;;;5078133;28;45117;-57
2023/09/21 11:12:41;;;;;;;2.83;1.20;;;22.80;92.80;;;;;;5069491;28;45418;-57
2023/09/21 11:15:13;;;;;;;1.90;1.00;;;22.80;92.90;;;;;;5078641;28;45098;-57
2023/09/21 11:17:43;;;;;;;3.00;1.05;;;22.80;93.00;;;;;;5080585;28;45187;-58
2023/09/21 11:20:13;;;;;;;1.15;0.80;;;22.90;93.00;;;;;;5076003;28;45104;-58
2023/09/21 11:22:41;;;;;;;1.55;1.02;;;22.90;93.10;;;;;;5076343;28;45434;-58
2023/09/21 11:25:10;;;;;;;1.25;1.00;;;22.90;93.20;;;;;;5078765;28;44731;-57
2023/09/21 11:27:38;;;;;;;2.10;0.80;;;22.90;93.20;;;;;;5080849;27;45394;-58
2023/09/21 11:30:07;;;;;;;1.55;0.98;;;22.90;93.20;;;;;;5077070;27;45513;-57
2023/09/21 11:32:44;;;;;;;2.13;0.88;;;22.90;93.30;;;;;;5072361;27;47280;-57
2023/09/21 11:35:11;;;;;;;1.90;0.90;;;22.90;93.30;;;;;;5081217;28;45273;-57
2023/09/21 11:37:37;;;;;;;1.00;0.90;;;22.90;93.40;;;;;;5083445;28;45084;-57
2023/09/21 11:40:07;;;;;;;1.15;0.80;;;22.90;93.40;;;;;;5078587;27;45423;-58
2023/09/21 11:42:34;;;;;;;0.88;0.80;;;22.90;93.50;;;;;;5082071;28;48187;-58
2023/09/21 11:45:03;;;;;;;1.52;1.00;;;22.90;93.50;;;;;;5084603;28;45194;-58
2023/09/21 11:47:32;;;;;;;1.80;1.00;;;22.90;93.50;;;;;;5090065;27;45088;-58
2023/09/21 11:50:06;;;;;;;1.58;1.00;;;22.90;93.60;;;;;;5079964;27;45046;-58
2023/09/21 11:52:34;;;;;;;1.10;1.00;;;22.90;93.70;;;;;;5080692;28;46919;-57
2023/09/21 11:55:01;;;;;;;0.98;0.88;;;22.90;93.70;;;;;;5082047;27;45137;-58
2023/09/21 11:57:28;;;;;;;0.70;0.70;;;22.90;93.80;;;;;;5077631;28;45170;-58
2023/09/21 11:59:56;;;;;;;0.98;0.88;;;22.90;93.90;;;;;;5073711;28;45236;-58
2023/09/21 12:02:23;;;;;;;1.33;0.90;;;22.90;93.90;;;;;;5077416;27;46426;-58
2023/09/21 12:04:50;;;;;;;0.90;0.70;;;22.90;94.10;;;;;;5073499;28;45154;-58
2023/09/21 12:07:19;;;;;;;1.48;0.95;;;22.90;94.20;;;;;;5078870;28;45131;-58
2023/09/21 12:09:46;;;;;;;1.42;0.90;;;22.90;94.30;;;;;;5071830;28;45319;-58
2023/09/21 12:12:14;;;;;;;1.25;0.90;;;22.90;94.40;;;;;;5079072;28;46249;-58
2023/09/21 12:14:43;;;;;;;1.95;0.90;;;22.90;94.40;;;;;;5074229;28;44583;-58
2023/09/21 12:17:11;;;;;;;3.40;1.05;;;22.90;94.50;;;;;;5079934;28;45217;-58
2023/09/21 12:19:39;;;;;;;0.98;0.90;;;22.90;94.60;;;;;;5077776;27;45166;-58
2023/09/21 12:22:06;;;;;;;1.63;0.65;;;22.90;94.50;;;;;;5075376;28;47079;-58
2023/09/21 12:24:35;;;;;;;2.35;0.90;;;22.90;94.60;;;;;;5076189;28;45224;-58
2023/09/21 12:27:05;;;;;;;0.85;0.75;;;22.90;94.70;;;;;;5083609;28;45081;-58
2023/09/21 12:29:33;;;;;;;2.25;0.77;;;22.90;94.70;;;;;;5079165;27;45178;-58
2023/09/21 12:32:00;;;;;;;1.15;0.82;;;22.90;94.70;;;;;;5078953;28;45480;-58
2023/09/21 12:34:27;;;;;;;1.90;0.90;;;22.90;94.80;;;;;;5074381;28;45094;-58
2023/09/21 12:36:54;;;;;;;1.42;0.90;;;22.90;94.80;;;;;;5066402;28;45148;-58
2023/09/21 12:39:24;;;;;;;1.27;0.85;;;22.90;94.80;;;;;;5072276;28;45268;-58
2023/09/21 12:41:52;;;;;;;1.45;0.70;;;22.90;94.90;;;;;;5077016;28;45201;-58
2023/09/21 12:44:19;;;;;;;1.60;0.70;;;22.90;94.90;;;;;;5079331;28;45168;-58
2023/09/21 12:46:46;;;;;;;2.55;1.10;;;22.90;94.90;;;;;;5070809;28;45133;-58
2023/09/21 12:49:13;;;;;;;0.70;0.63;;;22.90;94.90;;;;;;5082132;27;45126;-58
2023/09/21 12:51:43;;;;;;;1.10;0.80;;;22.90;94.90;;;;;;5070873;28;47276;-58
2023/09/21 12:54:10;;;;;;;0.95;0.70;;;22.90;94.90;;;;;;5071483;28;45383;-58